Time;durP1;ratioP1;P1;durP2;ratioP2;P2;SDS_P1;SDS_P2;PMS_P1;PMS_P2;Temp;Humidity;BMP_temperature;BMP_pressure;BME280_temperature;BME280_humidity;BME280_pressure;Samples;Min_cycle;Max_cycle;Signal;HPM_P1;HPM_P2
2023/04/10 04:01:17;;;;;;;4.97;3.85;;;6.00;99.90;;;;;;5471843;23;20740;-70
2023/04/10 04:03:44;;;;;;;6.82;6.32;;;5.90;99.90;;;;;;4911276;29;20237;-70
2023/04/10 04:06:11;;;;;;;13.07;8.15;;;5.90;99.90;;;;;;4908805;29;20212;-69
2023/04/10 04:08:38;;;;;;;11.38;6.32;;;5.90;99.90;;;;;;4933348;29;20289;-70
2023/04/10 04:11:05;;;;;;;9.93;5.15;;;5.90;99.90;;;;;;4923305;29;20620;-70
2023/04/10 04:13:31;;;;;;;7.72;6.22;;;5.90;99.90;;;;;;4913321;29;20214;-70
2023/04/10 04:15:58;;;;;;;10.70;7.35;;;5.80;99.90;;;;;;4923305;23;20716;-69
2023/04/10 04:18:26;;;;;;;6.82;6.05;;;5.80;99.90;;;;;;4912240;29;20210;-70
2023/04/10 04:20:53;;;;;;;7.35;5.50;;;5.80;99.90;;;;;;4896902;29;20307;-70
2023/04/10 04:23:20;;;;;;;10.43;5.75;;;5.80;99.90;;;;;;4899851;29;20215;-70
2023/04/10 04:25:48;;;;;;;6.70;6.07;;;5.80;99.90;;;;;;4907312;29;20236;-69
2023/04/10 04:28:16;;;;;;;7.95;7.20;;;5.80;99.90;;;;;;4887607;29;20268;-70
2023/04/10 04:30:43;;;;;;;9.43;4.57;;;5.80;99.90;;;;;;4905168;29;20319;-69
2023/04/10 04:33:09;;;;;;;9.15;8.35;;;5.80;99.90;;;;;;4904728;29;20234;-69
2023/04/10 04:35:37;;;;;;;11.68;6.75;;;5.80;99.90;;;;;;4906003;29;20234;-70
2023/04/10 04:38:04;;;;;;;7.05;5.93;;;5.80;99.90;;;;;;4898876;29;20223;-69
2023/04/10 04:40:31;;;;;;;13.18;6.82;;;5.80;99.90;;;;;;4900922;29;20207;-68
2023/04/10 04:42:58;;;;;;;19.15;5.63;;;5.70;99.90;;;;;;4891495;29;20208;-68
2023/04/10 04:45:24;;;;;;;7.13;4.45;;;5.70;99.90;;;;;;4897633;29;20525;-68
2023/04/10 04:47:51;;;;;;;13.07;6.75;;;5.70;99.90;;;;;;4882958;29;20636;-68
2023/04/10 04:50:18;;;;;;;9.65;5.47;;;5.70;99.90;;;;;;4903025;29;20625;-68
2023/04/10 04:52:46;;;;;;;9.95;6.43;;;5.70;99.90;;;;;;4888946;29;20646;-70
2023/04/10 04:55:13;;;;;;;14.10;6.35;;;5.70;99.90;;;;;;4899243;29;20211;-69
2023/04/10 04:57:39;;;;;;;6.38;5.90;;;5.70;99.90;;;;;;4900936;29;20234;-70
2023/04/10 05:00:07;;;;;;;9.38;6.45;;;5.80;99.90;;;;;;4899686;29;20818;-68
2023/04/10 05:02:34;;;;;;;11.98;8.55;;;5.80;99.90;;;;;;4893807;29;20204;-68
2023/04/10 05:05:01;;;;;;;9.50;5.18;;;5.90;99.90;;;;;;4900412;29;20216;-68
2023/04/10 05:07:28;;;;;;;22.13;7.20;;;5.90;99.90;;;;;;4903115;29;20218;-68
2023/04/10 05:09:56;;;;;;;12.73;7.82;;;5.90;99.90;;;;;;4905138;29;20262;-69
2023/04/10 05:12:23;;;;;;;6.57;6.00;;;6.00;99.90;;;;;;4891848;29;20553;-72
2023/04/10 05:14:50;;;;;;;15.35;8.88;;;6.10;99.90;;;;;;4899336;29;20207;-68
2023/04/10 05:17:16;;;;;;;13.30;8.00;;;6.20;99.90;;;;;;4894509;29;20401;-69
2023/04/10 05:19:43;;;;;;;11.27;8.65;;;6.20;99.90;;;;;;4914968;29;20221;-72
2023/04/10 05:22:10;;;;;;;9.68;7.43;;;6.30;99.90;;;;;;4898206;29;20206;-69
2023/04/10 05:24:37;;;;;;;7.82;5.80;;;6.40;99.90;;;;;;4900417;29;20211;-69
2023/04/10 05:27:06;;;;;;;11.35;6.25;;;6.50;99.90;;;;;;4890463;29;20222;-69
2023/04/10 05:29:33;;;;;;;8.43;7.63;;;6.50;99.90;;;;;;4896736;29;20237;-69
2023/04/10 05:32:00;;;;;;;10.93;7.68;;;6.60;99.90;;;;;;4900579;29;20241;-70
2023/04/10 05:34:26;;;;;;;6.20;4.65;;;6.60;99.90;;;;;;4913756;29;20293;-69
2023/04/10 05:36:53;;;;;;;10.40;7.38;;;6.70;99.90;;;;;;4902031;29;20688;-70
2023/04/10 05:39:20;;;;;;;11.90;8.02;;;6.80;99.90;;;;;;4902055;29;20211;-70
2023/04/10 05:41:46;;;;;;;16.00;10.55;;;6.90;99.90;;;;;;4886080;29;20590;-69
2023/04/10 05:44:15;;;;;;;6.60;5.20;;;7.00;99.90;;;;;;4887508;29;20235;-70
2023/04/10 05:46:41;;;;;;;14.90;8.68;;;7.20;99.90;;;;;;4901960;29;20723;-70
2023/04/10 05:49:08;;;;;;;10.40;6.70;;;7.30;99.90;;;;;;4911187;29;20206;-70
2023/04/10 05:51:35;;;;;;;14.05;8.15;;;7.50;99.90;;;;;;4899281;29;20203;-69
2023/04/10 05:54:01;;;;;;;15.57;8.25;;;7.60;99.90;;;;;;4912560;29;20211;-70
2023/04/10 05:56:28;;;;;;;13.77;9.82;;;7.50;99.90;;;;;;4895759;29;20227;-70
2023/04/10 05:58:55;;;;;;;12.90;7.13;;;7.60;99.90;;;;;;4894450;29;20230;-70
2023/04/10 06:01:23;;;;;;;8.75;6.65;;;7.60;99.90;;;;;;4891583;29;20211;-69
2023/04/10 06:03:50;;;;;;;15.20;6.78;;;7.60;99.90;;;;;;4906598;29;20214;-69
2023/04/10 06:06:17;;;;;;;13.75;8.93;;;7.70;99.90;;;;;;4902562;29;20231;-71
2023/04/10 06:08:44;;;;;;;11.85;8.07;;;7.80;99.90;;;;;;4901847;29;20203;-69
2023/04/10 06:11:10;;;;;;;10.55;7.22;;;7.80;99.90;;;;;;4896063;29;20228;-68
2023/04/10 06:13:37;;;;;;;10.85;7.43;;;7.90;99.90;;;;;;4907623;29;20302;-68
2023/04/10 06:16:04;;;;;;;26.00;10.82;;;8.00;99.90;;;;;;4896765;29;20236;-68
2023/04/10 06:18:33;;;;;;;12.60;10.20;;;8.10;99.90;;;;;;4902314;29;20204;-67
2023/04/10 06:21:00;;;;;;;12.05;6.13;;;8.20;99.90;;;;;;4903089;29;20208;-71
2023/04/10 06:23:27;;;;;;;10.18;5.20;;;8.30;99.90;;;;;;4897954;29;20613;-68
2023/04/10 06:25:54;;;;;;;12.43;8.07;;;8.50;99.90;;;;;;4896900;29;20227;-69
2023/04/10 06:28:21;;;;;;;11.07;7.00;;;8.60;99.90;;;;;;4906901;29;20211;-68
2023/04/10 06:30:48;;;;;;;8.98;6.10;;;8.70;99.90;;;;;;4888326;29;20230;-67
2023/04/10 06:33:15;;;;;;;13.38;7.70;;;8.70;99.90;;;;;;4906160;29;20217;-66
2023/04/10 06:35:43;;;;;;;19.58;9.07;;;8.80;99.90;;;;;;4888440;29;20254;-68
2023/04/10 06:38:09;;;;;;;19.95;10.60;;;8.80;99.90;;;;;;4897285;29;20239;-66
2023/04/10 06:40:36;;;;;;;12.98;9.50;;;8.90;99.90;;;;;;4898779;29;20226;-67
2023/04/10 06:43:03;;;;;;;14.23;7.63;;;9.00;99.90;;;;;;4900466;29;20225;-69
2023/04/10 06:45:30;;;;;;;14.70;8.60;;;9.00;99.90;;;;;;4891861;29;20223;-67
2023/04/10 06:47:57;;;;;;;12.52;7.80;;;9.10;99.90;;;;;;4905282;29;20278;-67
2023/04/10 06:50:24;;;;;;;14.60;8.85;;;9.20;99.90;;;;;;4907868;29;20216;-67
2023/04/10 06:52:54;;;;;;;11.48;7.05;;;9.20;99.90;;;;;;4897774;29;20214;-67
2023/04/10 06:55:21;;;;;;;7.78;6.85;;;9.30;99.90;;;;;;4909188;29;20282;-67
2023/04/10 06:57:48;;;;;;;11.35;8.93;;;9.30;99.90;;;;;;4904858;29;20277;-67
2023/04/10 07:00:15;;;;;;;11.40;7.05;;;9.40;99.90;;;;;;4911999;29;20210;-68
2023/04/10 07:02:42;;;;;;;10.13;7.55;;;9.40;99.90;;;;;;4893274;29;20216;-70
2023/04/10 07:05:09;;;;;;;11.45;6.55;;;9.50;99.90;;;;;;4894962;29;20235;-68
2023/04/10 07:07:36;;;;;;;11.60;8.00;;;9.50;99.90;;;;;;4904100;29;20561;-68
2023/04/10 07:10:06;;;;;;;12.02;7.95;;;9.60;99.90;;;;;;4913703;29;20223;-71
2023/04/10 07:12:33;;;;;;;13.65;8.27;;;9.70;99.90;;;;;;4893085;29;20680;-68
2023/04/10 07:15:00;;;;;;;14.27;6.55;;;9.70;99.90;;;;;;4894276;29;20214;-70
2023/04/10 07:17:27;;;;;;;16.75;8.05;;;9.90;99.90;;;;;;4899786;29;20254;-68
2023/04/10 07:19:53;;;;;;;6.85;3.80;;;9.90;99.90;;;;;;4911137;29;20570;-68
2023/04/10 07:22:20;;;;;;;7.13;4.97;;;9.90;99.90;;;;;;4892365;29;20219;-70
2023/04/10 07:24:47;;;;;;;7.90;7.18;;;10.00;99.90;;;;;;4897554;29;20222;-68
2023/04/10 07:27:15;;;;;;;14.23;8.35;;;10.10;99.90;;;;;;4896294;29;20240;-68
2023/04/10 07:29:42;;;;;;;3.88;3.53;;;10.20;99.90;;;;;;4898451;29;20707;-70
2023/04/10 07:32:09;;;;;;;7.80;7.05;;;10.20;99.90;;;;;;4894884;29;20240;-68
2023/04/10 07:34:36;;;;;;;9.93;6.97;;;10.20;99.90;;;;;;4899474;29;20215;-67
2023/04/10 07:37:03;;;;;;;8.27;6.28;;;10.30;99.90;;;;;;4898179;29;20722;-68
2023/04/10 07:39:30;;;;;;;7.22;6.05;;;10.30;99.90;;;;;;4910592;29;20211;-67
2023/04/10 07:41:56;;;;;;;14.45;7.78;;;10.40;99.90;;;;;;4889989;29;20216;-68
2023/04/10 07:44:26;;;;;;;8.82;6.78;;;10.50;99.90;;;;;;4909718;29;20218;-69
2023/04/10 07:46:53;;;;;;;12.68;6.80;;;10.60;99.90;;;;;;4906312;29;20231;-69
2023/04/10 07:49:20;;;;;;;5.60;4.55;;;10.80;99.90;;;;;;4892307;29;20314;-68
2023/04/10 07:51:46;;;;;;;9.32;6.57;;;10.90;99.90;;;;;;4894121;29;20219;-67
2023/04/10 07:54:13;;;;;;;11.38;8.93;;;11.00;99.90;;;;;;4907245;29;20210;-69
2023/04/10 07:56:40;;;;;;;1.52;1.52;;;11.00;99.90;;;;;;4887897;29;20309;-67
2023/04/10 07:59:07;;;;;;;7.03;5.35;;;11.20;99.90;;;;;;4898595;29;20213;-68
2023/04/10 08:01:35;;;;;;;12.07;6.45;;;11.30;99.90;;;;;;4902080;29;20223;-68
2023/04/10 08:04:02;;;;;;;12.27;6.85;;;11.30;99.90;;;;;;4905969;29;20203;-67
2023/04/10 08:06:28;;;;;;;7.22;6.40;;;11.30;99.90;;;;;;4906611;29;20227;-70
2023/04/10 08:08:55;;;;;;;6.55;5.68;;;11.40;99.90;;;;;;4902255;29;20217;-71
2023/04/10 08:11:24;;;;;;;8.30;7.13;;;11.40;99.90;;;;;;4907603;29;20206;-69
2023/04/10 08:13:51;;;;;;;8.52;6.38;;;11.50;99.90;;;;;;4907267;29;20214;-68
2023/04/10 08:16:20;;;;;;;8.23;5.97;;;11.70;99.90;;;;;;4908551;29;20252;-68
2023/04/10 08:18:48;;;;;;;7.87;3.97;;;11.80;99.90;;;;;;4879026;29;20569;-67
2023/04/10 08:21:15;;;;;;;7.33;4.23;;;12.00;99.90;;;;;;4886606;29;20485;-68
2023/04/10 08:23:42;;;;;;;13.83;7.07;;;12.20;99.90;;;;;;4893841;29;20480;-68
2023/04/10 08:26:08;;;;;;;6.33;4.60;;;12.30;99.90;;;;;;4901469;29;20491;-67
2023/04/10 08:28:36;;;;;;;14.70;9.20;;;12.40;99.90;;;;;;4896287;29;20475;-67
2023/04/10 08:31:03;;;;;;;10.07;8.00;;;12.40;99.90;;;;;;4912274;29;20482;-67
2023/04/10 08:33:30;;;;;;;12.93;8.27;;;12.40;99.90;;;;;;4905403;29;20556;-68
2023/04/10 08:35:58;;;;;;;11.00;6.83;;;12.50;99.90;;;;;;4903759;29;20506;-68
2023/04/10 08:38:26;;;;;;;11.70;5.60;;;12.50;99.90;;;;;;4910346;29;20486;-69
2023/04/10 08:40:53;;;;;;;11.83;5.80;;;12.60;99.90;;;;;;4907470;29;20478;-71
2023/04/10 08:43:20;;;;;;;10.37;6.27;;;12.80;99.90;;;;;;4904641;29;20558;-71
2023/04/10 08:45:47;;;;;;;5.80;4.90;;;13.00;99.90;;;;;;4911254;29;20813;-69
2023/04/10 08:48:15;;;;;;;5.63;5.00;;;13.20;99.90;;;;;;4891991;29;20477;-67
2023/04/10 08:50:43;;;;;;;8.07;5.90;;;13.30;99.90;;;;;;4909937;29;20486;-68
2023/04/10 08:53:14;;;;;;;7.03;6.10;;;13.20;99.90;;;;;;4901944;29;20459;-68
2023/04/10 08:55:41;;;;;;;12.10;6.23;;;13.40;99.90;;;;;;4910050;29;20598;-71
2023/04/10 08:58:09;;;;;;;8.90;6.70;;;13.50;99.90;;;;;;4896085;29;20497;-68
2023/04/10 09:00:37;;;;;;;8.70;5.37;;;13.60;99.90;;;;;;4901784;29;20472;-67
2023/04/10 09:03:07;;;;;;;5.57;2.77;;;13.50;99.90;;;;;;4904084;29;20556;-68
2023/04/10 09:05:35;;;;;;;5.03;4.20;;;13.60;99.90;;;;;;4892507;29;20499;-70
2023/04/10 09:08:02;;;;;;;4.87;4.10;;;13.90;99.90;;;;;;4887974;29;20488;-67
2023/04/10 09:10:30;;;;;;;6.00;5.40;;;14.10;99.90;;;;;;4897718;29;20474;-66
2023/04/10 09:12:57;;;;;;;5.73;4.37;;;14.30;99.90;;;;;;4892097;29;20478;-70
2023/04/10 09:15:24;;;;;;;6.87;5.03;;;14.30;99.90;;;;;;4880732;29;20507;-67
2023/04/10 09:17:59;;;;;;;4.43;3.77;;;14.30;99.90;;;;;;4895508;29;20604;-66
2023/04/10 09:20:28;;;;;;;5.80;4.50;;;14.30;99.90;;;;;;4892883;29;20479;-67
2023/04/10 09:22:55;;;;;;;6.70;4.83;;;14.30;99.90;;;;;;4896291;29;20472;-67
2023/04/10 09:25:34;;;;;;;5.40;4.63;;;14.30;99.90;;;;;;4886282;29;20484;-68
2023/04/10 09:28:06;;;;;;;8.40;5.30;;;14.50;99.90;;;;;;4886721;29;20841;-67
2023/04/10 09:30:35;;;;;;;7.50;4.50;;;14.70;99.90;;;;;;4887850;29;20484;-67
2023/04/10 09:33:02;;;;;;;5.17;3.10;;;14.70;99.90;;;;;;4886247;29;20565;-70
2023/04/10 09:35:37;;;;;;;5.00;3.53;;;14.80;99.90;;;;;;4883221;29;20527;-68
2023/04/10 09:38:17;;;;;;;5.37;4.23;;;15.00;99.90;;;;;;4883704;29;20523;-68
2023/04/10 09:40:46;;;;;;;4.83;4.17;;;15.20;99.90;;;;;;4885743;29;20477;-67
2023/04/10 09:43:22;;;;;;;5.60;3.60;;;15.20;99.90;;;;;;4894827;29;20971;-69
2023/04/10 09:45:50;;;;;;;13.83;3.80;;;15.20;99.90;;;;;;4904652;29;20498;-69
2023/04/10 09:48:18;;;;;;;5.83;5.10;;;15.20;99.90;;;;;;4905180;29;20466;-67
2023/04/10 09:50:45;;;;;;;2.60;2.50;;;15.40;99.90;;;;;;4905993;29;20935;-66
2023/04/10 09:53:13;;;;;;;3.60;2.77;;;15.50;99.90;;;;;;4888904;29;20478;-70
2023/04/10 09:55:41;;;;;;;1.37;1.33;;;15.60;99.90;;;;;;4900028;29;20494;-69
2023/04/10 09:58:10;;;;;;;6.33;4.60;;;15.60;99.90;;;;;;4900579;29;20825;-70
2023/04/10 10:00:40;;;;;;;8.10;4.87;;;15.70;99.90;;;;;;4883010;29;20561;-67
2023/04/10 10:03:10;;;;;;;4.73;4.30;;;15.70;99.90;;;;;;4895250;29;20470;-67
2023/04/10 10:05:39;;;;;;;4.70;4.40;;;15.60;99.90;;;;;;4899000;29;20818;-70
2023/04/10 10:08:06;;;;;;;3.97;3.60;;;15.70;99.90;;;;;;4904459;29;20466;-67
2023/04/10 10:10:33;;;;;;;4.60;4.20;;;15.80;99.90;;;;;;4888863;29;20478;-68
2023/04/10 10:13:02;;;;;;;3.43;3.23;;;15.80;99.90;;;;;;4894419;29;20462;-66
2023/04/10 10:15:37;;;;;;;3.90;3.27;;;15.90;99.90;;;;;;4890766;29;20503;-67
2023/04/10 10:18:13;;;;;;;6.17;4.93;;;16.10;99.90;;;;;;4906273;29;20601;-68
2023/04/10 10:20:44;;;;;;;3.53;2.80;;;16.10;99.90;;;;;;4897211;29;20488;-67
2023/04/10 10:23:11;;;;;;;7.40;2.87;;;16.20;99.90;;;;;;4893006;29;20465;-69
2023/04/10 10:25:39;;;;;;;3.40;2.13;;;16.30;99.90;;;;;;4894609;29;20492;-68
2023/04/10 10:28:06;;;;;;;3.93;2.73;;;16.30;99.90;;;;;;4901836;29;20455;-68
2023/04/10 10:30:36;;;;;;;3.60;3.40;;;16.30;99.90;;;;;;4898591;29;20467;-71
2023/04/10 10:33:06;;;;;;;6.73;4.40;;;16.30;99.90;;;;;;4900087;29;20462;-68
2023/04/10 10:35:34;;;;;;;7.37;3.97;;;16.30;99.90;;;;;;4901145;29;20487;-68
2023/04/10 10:38:03;;;;;;;3.00;2.77;;;16.20;99.90;;;;;;4887464;29;20614;-71
2023/04/10 10:40:33;;;;;;;3.70;3.33;;;16.10;99.90;;;;;;4885462;29;20471;-69
2023/04/10 10:43:08;;;;;;;2.10;2.00;;;16.20;99.90;;;;;;4900891;29;20865;-68
2023/04/10 10:45:42;;;;;;;3.13;2.83;;;16.40;99.90;;;;;;4909664;29;20493;-68
2023/04/10 10:48:10;;;;;;;4.63;2.87;;;16.50;99.90;;;;;;4914932;29;20528;-68
2023/04/10 10:50:51;;;;;;;4.67;4.03;;;16.50;99.90;;;;;;4906805;29;20485;-68
2023/04/10 10:53:36;;;;;;;1.90;1.80;;;16.40;99.90;;;;;;4904546;29;20888;-70
2023/04/10 10:56:34;;;;;;;2.90;2.50;;;16.50;99.90;;;;;;4897247;29;20524;-69
2023/04/10 10:59:02;;;;;;;4.50;4.10;;;16.70;99.50;;;;;;4886469;29;20551;-69
2023/04/10 11:01:30;;;;;;;6.03;4.00;;;16.50;99.00;;;;;;4889879;29;20472;-69
2023/04/10 11:03:58;;;;;;;3.00;2.70;;;16.30;99.00;;;;;;4912753;29;20463;-68
2023/04/10 11:06:50;;;;;;;6.43;4.10;;;16.50;98.90;;;;;;4902672;29;20581;-68
2023/04/10 11:09:50;;;;;;;5.30;3.87;;;16.50;98.50;;;;;;4892356;29;20478;-68
2023/04/10 11:12:18;;;;;;;8.93;4.10;;;16.50;98.20;;;;;;4879211;29;20911;-69
2023/04/10 11:14:56;;;;;;;3.40;3.10;;;16.50;97.00;;;;;;4899122;29;20822;-68
2023/04/10 11:17:48;;;;;;;2.50;2.30;;;16.50;96.80;;;;;;4902963;29;20498;-70
2023/04/10 11:20:16;;;;;;;5.80;4.23;;;16.50;97.00;;;;;;4894262;29;20467;-69
2023/04/10 11:23:09;;;;;;;3.33;2.87;;;16.60;96.20;;;;;;4885140;29;20474;-69
2023/04/10 11:25:50;;;;;;;3.30;2.37;;;16.80;95.50;;;;;;4913691;29;20489;-68
2023/04/10 11:28:39;;;;;;;3.73;3.03;;;17.00;94.50;;;;;;4914247;29;21023;-69
2023/04/10 11:31:18;;;;;;;2.20;2.10;;;17.00;94.50;;;;;;4900468;29;20961;-68
2023/04/10 11:33:47;;;;;;;2.77;2.57;;;17.00;94.30;;;;;;4910967;29;20487;-68
2023/04/10 11:36:16;;;;;;;3.20;2.90;;;17.10;94.00;;;;;;4912404;29;20495;-68
2023/04/10 11:38:57;;;;;;;2.50;2.30;;;17.20;93.80;;;;;;4915477;29;20578;-69
2023/04/10 11:41:29;;;;;;;2.10;2.00;;;17.20;93.70;;;;;;4903322;29;20495;-68
2023/04/10 11:43:56;;;;;;;4.03;3.83;;;17.40;92.90;;;;;;4894407;29;20841;-68
2023/04/10 11:46:23;;;;;;;2.63;2.47;;;17.50;91.70;;;;;;4906212;29;20478;-71
2023/04/10 11:48:55;;;;;;;2.90;2.67;;;17.60;91.90;;;;;;4879085;29;20479;-68
2023/04/10 11:51:22;;;;;;;3.00;2.80;;;17.50;92.00;;;;;;4879674;29;20495;-69
2023/04/10 11:53:48;;;;;;;7.00;5.53;;;17.50;92.10;;;;;;4896415;29;20561;-68
2023/04/10 11:56:21;;;;;;;2.13;2.03;;;17.30;92.10;;;;;;4884065;29;22340;-70
2023/04/10 11:58:52;;;;;;;5.60;5.10;;;17.20;91.90;;;;;;4886810;29;20524;-69
2023/04/10 12:01:21;;;;;;;2.47;2.27;;;17.30;92.30;;;;;;4902860;29;20571;-68
2023/04/10 12:03:48;;;;;;;3.03;2.70;;;17.20;92.40;;;;;;4901491;29;20471;-68
2023/04/10 12:06:18;;;;;;;2.20;2.07;;;17.20;92.30;;;;;;4894018;29;21010;-68
2023/04/10 12:08:46;;;;;;;2.50;2.27;;;17.30;92.40;;;;;;4912402;29;20504;-69
2023/04/10 12:11:14;;;;;;;1.63;1.53;;;17.20;92.10;;;;;;4907104;29;20474;-72
2023/04/10 12:13:41;;;;;;;3.50;3.20;;;17.40;92.20;;;;;;4905322;29;20471;-68
2023/04/10 12:16:10;;;;;;;3.43;3.23;;;17.40;91.60;;;;;;4886607;29;20853;-69
2023/04/10 12:18:38;;;;;;;1.90;1.80;;;17.30;91.70;;;;;;4893599;29;20496;-68
2023/04/10 12:21:05;;;;;;;1.73;1.63;;;17.50;91.70;;;;;;4905822;29;20473;-70
2023/04/10 12:23:35;;;;;;;2.03;1.93;;;17.60;91.00;;;;;;4888500;29;20475;-70
2023/04/10 12:26:12;;;;;;;2.33;2.23;;;17.70;91.00;;;;;;4889391;29;20502;-68
2023/04/10 12:28:40;;;;;;;2.43;2.30;;;17.70;90.60;;;;;;4895781;29;20575;-68
2023/04/10 12:31:07;;;;;;;1.30;1.30;;;17.70;90.70;;;;;;4892510;29;20483;-68
2023/04/10 12:33:34;;;;;;;2.17;2.07;;;17.80;91.20;;;;;;4893368;29;20472;-69
2023/04/10 12:36:01;;;;;;;2.07;2.00;;;18.00;90.50;;;;;;4907179;29;20878;-68
2023/04/10 12:38:40;;;;;;;2.40;2.30;;;18.00;90.50;;;;;;4903736;29;20495;-67
2023/04/10 12:41:08;;;;;;;5.20;2.40;;;18.10;90.40;;;;;;4898296;29;21070;-68
2023/04/10 12:43:37;;;;;;;1.80;1.77;;;18.00;90.00;;;;;;4901611;29;20502;-68
2023/04/10 12:46:05;;;;;;;2.20;2.00;;;18.00;89.60;;;;;;4901571;29;20494;-68
2023/04/10 12:48:32;;;;;;;2.33;2.13;;;18.10;90.00;;;;;;4901024;29;20499;-68
2023/04/10 12:51:00;;;;;;;1.70;1.60;;;18.00;90.00;;;;;;4891312;29;20499;-69
2023/04/10 12:53:27;;;;;;;1.83;1.63;;;17.90;90.40;;;;;;4893959;29;20491;-70
2023/04/10 12:56:00;;;;;;;2.50;1.83;;;18.00;90.30;;;;;;4896258;29;20569;-70
2023/04/10 12:58:30;;;;;;;1.97;1.80;;;18.00;90.30;;;;;;4886292;29;20468;-68
2023/04/10 13:00:59;;;;;;;2.70;2.60;;;18.00;90.20;;;;;;4902398;29;20478;-68
2023/04/10 13:03:26;;;;;;;1.87;1.70;;;18.10;90.70;;;;;;4896369;29;20476;-68
2023/04/10 13:05:53;;;;;;;2.00;1.90;;;18.00;90.80;;;;;;4914629;29;21256;-68
2023/04/10 13:08:20;;;;;;;2.70;2.53;;;18.00;90.70;;;;;;4902086;29;20480;-68
2023/04/10 13:10:46;;;;;;;3.50;2.70;;;18.00;90.80;;;;;;4885630;29;20486;-67
2023/04/10 13:13:15;;;;;;;2.00;1.90;;;18.00;90.80;;;;;;4908265;29;20585;-70
2023/04/10 13:15:42;;;;;;;3.37;2.90;;;18.10;90.80;;;;;;4913788;29;20505;-68
2023/04/10 13:18:10;;;;;;;2.10;2.00;;;18.10;90.90;;;;;;4906441;29;20538;-67
2023/04/10 13:20:37;;;;;;;1.97;1.87;;;18.10;91.00;;;;;;4896717;29;20491;-71
2023/04/10 13:23:04;;;;;;;2.77;2.67;;;18.10;91.30;;;;;;4893565;29;20492;-70
2023/04/10 13:25:33;;;;;;;2.10;1.90;;;18.20;91.30;;;;;;4893069;29;21067;-67
2023/04/10 13:28:00;;;;;;;3.07;2.40;;;18.20;91.20;;;;;;4900127;29;20528;-69
2023/04/10 13:30:28;;;;;;;3.23;2.47;;;18.20;91.30;;;;;;4892565;29;20472;-69
2023/04/10 13:32:55;;;;;;;2.37;2.27;;;18.20;91.80;;;;;;4914577;29;20462;-66
2023/04/10 13:35:22;;;;;;;2.70;2.60;;;18.20;91.60;;;;;;4894655;29;20471;-68
2023/04/10 13:37:51;;;;;;;2.43;2.33;;;18.30;91.80;;;;;;4914709;29;20466;-67
2023/04/10 13:40:19;;;;;;;2.77;2.57;;;18.30;92.10;;;;;;4902403;29;20491;-68
2023/04/10 13:42:47;;;;;;;4.30;3.77;;;18.30;91.60;;;;;;4887027;29;20836;-67
2023/04/10 13:45:13;;;;;;;3.27;3.07;;;18.30;92.10;;;;;;4907416;29;20513;-67
2023/04/10 13:47:42;;;;;;;3.07;2.80;;;18.30;92.10;;;;;;4907973;29;20475;-69
2023/04/10 13:50:09;;;;;;;5.50;3.47;;;18.30;92.30;;;;;;4899307;29;20472;-69
2023/04/10 13:52:36;;;;;;;2.83;2.60;;;18.30;92.50;;;;;;4905856;29;20478;-67
2023/04/10 13:55:03;;;;;;;6.10;3.40;;;18.30;92.50;;;;;;4910356;29;21000;-67
2023/04/10 13:57:30;;;;;;;4.63;3.90;;;18.20;92.80;;;;;;4902571;29;20478;-66
2023/04/10 13:59:56;;;;;;;3.17;2.70;;;18.10;93.10;;;;;;4883315;29;21031;-68
2023/04/10 14:02:23;;;;;;;4.27;4.00;;;18.10;93.20;;;;;;4899557;29;20936;-68
2023/04/10 14:04:51;;;;;;;4.10;3.50;;;18.20;93.30;;;;;;4895294;29;20472;-67
2023/04/10 14:07:18;;;;;;;2.73;2.50;;;18.20;92.80;;;;;;4890999;29;20507;-67
2023/04/10 14:09:46;;;;;;;3.20;2.93;;;18.10;92.70;;;;;;4896051;29;20834;-67
2023/04/10 14:12:15;;;;;;;2.73;2.50;;;18.10;92.90;;;;;;4906717;29;20470;-70
2023/04/10 14:14:41;;;;;;;4.30;3.17;;;18.10;92.60;;;;;;4900495;29;20490;-67
2023/04/10 14:17:08;;;;;;;1.57;1.57;;;18.10;92.70;;;;;;4905601;29;20509;-67
2023/04/10 14:19:35;;;;;;;5.33;3.60;;;18.00;93.30;;;;;;4893120;29;20503;-71
2023/04/10 14:22:03;;;;;;;3.93;3.60;;;18.00;94.60;;;;;;4882613;29;20471;-68
2023/04/10 14:24:30;;;;;;;2.60;2.40;;;18.00;94.60;;;;;;4886700;29;20479;-68
2023/04/10 14:26:59;;;;;;;3.10;2.93;;;18.00;94.40;;;;;;4888382;29;20510;-67
2023/04/10 14:29:26;;;;;;;7.80;4.47;;;18.00;94.80;;;;;;4890768;29;20567;-68
2023/04/10 14:31:53;;;;;;;3.23;3.00;;;17.90;94.70;;;;;;4887182;29;20472;-68
2023/04/10 14:34:20;;;;;;;2.07;1.97;;;17.90;94.80;;;;;;4884014;29;20483;-67
2023/04/10 14:36:47;;;;;;;2.50;2.30;;;17.90;95.20;;;;;;4901998;29;20487;-67
2023/04/10 14:39:15;;;;;;;3.20;2.60;;;18.10;95.10;;;;;;4886276;29;20814;-69
2023/04/10 14:41:42;;;;;;;2.43;2.23;;;18.00;94.50;;;;;;4904604;29;20475;-68
2023/04/10 14:44:08;;;;;;;2.33;2.23;;;18.00;94.30;;;;;;4891884;29;20478;-67
2023/04/10 14:46:36;;;;;;;2.17;1.97;;;18.00;93.90;;;;;;4895042;29;20494;-68
2023/04/10 14:49:03;;;;;;;2.20;2.00;;;18.00;93.10;;;;;;4886980;29;20900;-68
2023/04/10 14:51:29;;;;;;;1.60;1.50;;;17.90;92.40;;;;;;4889876;29;20483;-70
2023/04/10 14:53:56;;;;;;;2.93;2.73;;;17.90;92.40;;;;;;4893133;29;20470;-68
2023/04/10 14:56:24;;;;;;;2.13;1.93;;;17.90;92.60;;;;;;4899783;29;20618;-68
2023/04/10 14:58:51;;;;;;;2.03;1.93;;;17.90;92.60;;;;;;4899171;29;20471;-67
2023/04/10 15:01:18;;;;;;;1.50;1.40;;;17.90;92.50;;;;;;4890968;29;20471;-68
2023/04/10 15:03:46;;;;;;;2.67;2.47;;;17.80;92.30;;;;;;4912040;29;20471;-68
2023/04/10 15:06:13;;;;;;;3.07;2.90;;;17.90;92.70;;;;;;4904080;29;20494;-68
2023/04/10 15:08:40;;;;;;;3.80;3.50;;;17.90;92.20;;;;;;4889116;29;20476;-68
2023/04/10 15:11:07;;;;;;;2.17;2.07;;;17.80;92.00;;;;;;4891694;29;20474;-69
2023/04/10 15:13:36;;;;;;;2.90;1.43;;;17.80;91.90;;;;;;4894362;29;20482;-68
2023/04/10 15:16:03;;;;;;;1.03;1.03;;;17.70;92.20;;;;;;4890398;29;20593;-68
2023/04/10 15:18:30;;;;;;;1.60;1.43;;;17.80;92.10;;;;;;4901984;29;20593;-71
2023/04/10 15:20:56;;;;;;;3.63;2.80;;;17.70;92.60;;;;;;4879928;29;20492;-69
2023/04/10 15:23:23;;;;;;;1.17;0.97;;;17.60;93.10;;;;;;4881325;29;20475;-67
2023/04/10 15:25:51;;;;;;;2.00;1.90;;;17.60;93.40;;;;;;4897135;29;20491;-69
2023/04/10 15:28:17;;;;;;;2.17;2.07;;;17.50;93.60;;;;;;4895336;29;20474;-67
2023/04/10 15:30:47;;;;;;;1.80;1.77;;;17.50;93.90;;;;;;4893673;29;20784;-68
2023/04/10 15:33:14;;;;;;;2.77;2.67;;;17.40;94.30;;;;;;4898873;29;20979;-67
2023/04/10 15:35:41;;;;;;;4.20;3.30;;;17.40;94.40;;;;;;4881549;29;21049;-69
2023/04/10 15:38:08;;;;;;;4.53;2.43;;;17.40;94.80;;;;;;4880034;29;20468;-67
2023/04/10 15:40:34;;;;;;;4.97;3.17;;;17.40;95.00;;;;;;4896817;29;20487;-67
2023/04/10 15:43:01;;;;;;;4.80;1.70;;;17.40;95.40;;;;;;4889164;29;20510;-70
2023/04/10 15:45:28;;;;;;;4.93;4.63;;;17.30;95.20;;;;;;4887702;29;20494;-70
2023/04/10 15:47:57;;;;;;;0.80;0.80;;;17.30;95.30;;;;;;4891799;29;20478;-67
2023/04/10 15:50:24;;;;;;;4.50;2.70;;;17.30;95.60;;;;;;4892501;29;21263;-68
2023/04/10 15:52:51;;;;;;;3.57;3.27;;;17.20;95.60;;;;;;4885840;29;20480;-67
2023/04/10 15:55:18;;;;;;;4.67;3.50;;;17.20;95.70;;;;;;4885489;29;20466;-68
2023/04/10 15:57:44;;;;;;;3.40;3.10;;;17.20;96.00;;;;;;4898516;29;20471;-67
2023/04/10 16:00:12;;;;;;;1.63;1.53;;;17.20;95.80;;;;;;4881862;29;20951;-68
2023/04/10 16:02:39;;;;;;;2.90;2.70;;;17.20;95.80;;;;;;4906370;29;20495;-68
2023/04/10 16:05:08;;;;;;;2.47;2.30;;;17.20;95.60;;;;;;4903394;29;20509;-68
2023/04/10 16:07:36;;;;;;;2.87;2.60;;;17.20;95.50;;;;;;4896289;29;20471;-68
2023/04/10 16:10:04;;;;;;;0.80;0.80;;;17.20;95.80;;;;;;4883286;29;20527;-68
2023/04/10 16:12:30;;;;;;;1.80;1.70;;;17.20;95.90;;;;;;4886398;29;20476;-68
2023/04/10 16:14:57;;;;;;;1.30;0.87;;;17.30;95.90;;;;;;4893481;29;20479;-68
2023/04/10 16:17:24;;;;;;;2.30;2.20;;;17.40;95.60;;;;;;4895299;29;20553;-68
2023/04/10 16:19:51;;;;;;;3.90;2.67;;;17.40;95.90;;;;;;4903409;29;20859;-68
2023/04/10 16:22:19;;;;;;;1.77;1.77;;;17.50;96.30;;;;;;4883723;29;20610;-68
2023/04/10 16:24:46;;;;;;;2.33;1.77;;;17.50;95.60;;;;;;4893730;29;20470;-68
2023/04/10 16:27:12;;;;;;;2.40;2.20;;;17.40;95.60;;;;;;4891363;29;20500;-68
2023/04/10 16:29:39;;;;;;;1.60;1.50;;;17.30;95.60;;;;;;4889716;29;20957;-68
2023/04/10 16:32:06;;;;;;;2.90;2.70;;;17.20;96.10;;;;;;4890337;29;20966;-67
2023/04/10 16:34:33;;;;;;;2.73;2.57;;;17.00;96.10;;;;;;4888939;29;20472;-68
2023/04/10 16:36:59;;;;;;;2.83;2.73;;;16.90;96.50;;;;;;4885150;29;20994;-69
2023/04/10 16:39:27;;;;;;;2.87;2.57;;;16.80;96.90;;;;;;4889917;29;20471;-68
2023/04/10 16:41:54;;;;;;;4.57;3.10;;;16.80;97.20;;;;;;4884064;29;20494;-68
2023/04/10 16:44:21;;;;;;;2.13;1.87;;;16.70;97.40;;;;;;4892657;29;20471;-68
2023/04/10 16:46:48;;;;;;;0.80;0.80;;;16.60;97.70;;;;;;4899636;29;20490;-68
2023/04/10 16:49:16;;;;;;;3.50;3.00;;;16.50;97.60;;;;;;4883820;29;20483;-69
2023/04/10 16:51:43;;;;;;;2.23;2.10;;;16.50;98.00;;;;;;4901122;29;20475;-68
2023/04/10 16:54:09;;;;;;;0.87;0.87;;;16.40;98.00;;;;;;4891024;29;20476;-69